Terminal Aerodrome Forecast
Issued by NWS Louisville, KY

Home | Current Version | Previous Version | Text Only | Print | Product List | Glossary On
Versions: 1 2 3 4 5 6 7 8 9 10 11 12 13 14 15 16
000
FTUS43 KLMK 241600 AAA
TAFBWG
TAF AMD
KBWG 241610Z 2416/2512 27013G18KT 4SM -SHRA BR BKN012
      TEMPO 2416/2418 BKN007
     FM241900 27015G22KT P6SM VCSH BKN020
     FM242300 24010G15KT P6SM BKN015=

USA.gov is the U.S. government's official web portal to all federal, state and local government web resources and services.